sensor_id;sensor_type;location;lat;lon;timestamp;pressure;altitude;pressure_sealevel;temperature;humidity
21276;BME280;36472;52.170;20.884;2023-01-27T00:02:20;100884.56;;;1.25;80.02
21276;BME280;36472;52.170;20.884;2023-01-27T00:04:49;100879.44;;;1.22;79.62
21276;BME280;36472;52.170;20.884;2023-01-27T00:07:18;100886.25;;;1.26;79.75
21276;BME280;36472;52.170;20.884;2023-01-27T00:09:47;100875.03;;;1.27;80.05
21276;BME280;36472;52.170;20.884;2023-01-27T00:12:19;100876.72;;;1.30;79.87
21276;BME280;36472;52.170;20.884;2023-01-27T00:15:08;100880.22;;;1.26;80.31
21276;BME280;36472;52.170;20.884;2023-01-27T00:17:39;100883.63;;;1.29;80.63
21276;BME280;36472;52.170;20.884;2023-01-27T00:20:10;100885.31;;;1.32;80.75
21276;BME280;36472;52.170;20.884;2023-01-27T00:22:40;100883.50;;;1.36;80.32
21276;BME280;36472;52.170;20.884;2023-01-27T00:25:26;100881.72;;;1.38;80.30
21276;BME280;36472;52.170;20.884;2023-01-27T00:27:55;100890.44;;;1.35;80.38
21276;BME280;36472;52.170;20.884;2023-01-27T00:30:25;100886.16;;;1.33;80.05
21276;BME280;36472;52.170;20.884;2023-01-27T00:32:55;100885.13;;;1.41;80.78
21276;BME280;36472;52.170;20.884;2023-01-27T00:35:42;100885.31;;;1.32;80.17
21276;BME280;36472;52.170;20.884;2023-01-27T00:38:11;100895.63;;;1.34;79.97
21276;BME280;36472;52.170;20.884;2023-01-27T00:40:40;100892.22;;;1.32;80.38
21276;BME280;36472;52.170;20.884;2023-01-27T00:43:29;100894.13;;;1.22;79.53
21276;BME280;36472;52.170;20.884;2023-01-27T00:45:58;100877.84;;;1.15;80.17
21276;BME280;36472;52.170;20.884;2023-01-27T00:48:29;100892.44;;;1.19;79.74
21276;BME280;36472;52.170;20.884;2023-01-27T00:50:58;100896.69;;;1.23;80.23
21276;BME280;36472;52.170;20.884;2023-01-27T00:53:28;100898.38;;;1.24;80.11
21276;BME280;36472;52.170;20.884;2023-01-27T00:55:57;100890.72;;;1.20;80.04
21276;BME280;36472;52.170;20.884;2023-01-27T00:58:28;100892.44;;;1.19;80.42
21276;BME280;36472;52.170;20.884;2023-01-27T01:00:59;100884.63;;;1.22;80.22
21276;BME280;36472;52.170;20.884;2023-01-27T01:03:31;100887.19;;;1.22;80.31
21276;BME280;36472;52.170;20.884;2023-01-27T01:06:04;100889.81;;;1.21;81.11
21276;BME280;36472;52.170;20.884;2023-01-27T01:08:36;100890.63;;;1.23;80.78
21276;BME280;36472;52.170;20.884;2023-01-27T01:11:06;100890.66;;;1.21;81.15
21276;BME280;36472;52.170;20.884;2023-01-27T01:13:36;100891.50;;;1.25;80.84
21276;BME280;36472;52.170;20.884;2023-01-27T01:16:08;100891.56;;;1.20;80.46
21276;BME280;36472;52.170;20.884;2023-01-27T01:18:39;100894.13;;;1.22;80.52
21276;BME280;36472;52.170;20.884;2023-01-27T01:21:10;100894.19;;;1.19;79.98
21276;BME280;36472;52.170;20.884;2023-01-27T01:23:41;100885.66;;;1.14;79.52
21276;BME280;36472;52.170;20.884;2023-01-27T01:26:13;100897.72;;;1.15;80.24
21276;BME280;36472;52.170;20.884;2023-01-27T01:28:43;100894.31;;;1.11;80.48
21276;BME280;36472;52.170;20.884;2023-01-27T01:31:15;100899.47;;;1.11;79.79
21276;BME280;36472;52.170;20.884;2023-01-27T01:33:47;100886.50;;;1.12;79.73
21276;BME280;36472;52.170;20.884;2023-01-27T01:36:20;100890.00;;;1.11;80.07
21276;BME280;36472;52.170;20.884;2023-01-27T01:38:54;100882.34;;;1.05;79.68
21276;BME280;36472;52.170;20.884;2023-01-27T01:41:24;100895.22;;;1.10;79.23
21276;BME280;36472;52.170;20.884;2023-01-27T01:43:54;100889.09;;;1.12;79.34
21276;BME280;36472;52.170;20.884;2023-01-27T01:46:23;100889.22;;;1.08;78.96
21276;BME280;36472;52.170;20.884;2023-01-27T01:48:57;100890.19;;;1.01;79.06
21276;BME280;36472;52.170;20.884;2023-01-27T01:51:32;100894.53;;;0.99;79.48
21276;BME280;36472;52.170;20.884;2023-01-27T01:54:07;100887.59;;;1.01;79.39
21276;BME280;36472;52.170;20.884;2023-01-27T01:56:42;100892.63;;;1.08;79.58
21276;BME280;36472;52.170;20.884;2023-01-27T01:59:17;100896.94;;;1.09;79.11
21276;BME280;36472;52.170;20.884;2023-01-27T02:01:49;100894.34;;;1.09;79.12
21276;BME280;36472;52.170;20.884;2023-01-27T02:04:25;100892.53;;;1.15;79.53
21276;BME280;36472;52.170;20.884;2023-01-27T02:07:04;100892.38;;;1.22;79.78
21276;BME280;36472;52.170;20.884;2023-01-27T02:09:37;100893.25;;;1.21;80.02
21276;BME280;36472;52.170;20.884;2023-01-27T02:12:06;100887.28;;;1.18;79.57
21276;BME280;36472;52.170;20.884;2023-01-27T02:14:38;100889.72;;;1.27;79.50
21276;BME280;36472;52.170;20.884;2023-01-27T02:17:09;100888.91;;;1.25;78.99
21276;BME280;36472;52.170;20.884;2023-01-27T02:19:52;100885.47;;;1.23;79.64
21276;BME280;36472;52.170;20.884;2023-01-27T02:22:34;100889.75;;;1.25;79.53
21276;BME280;36472;52.170;20.884;2023-01-27T02:25:19;100888.81;;;1.28;79.93
21276;BME280;36472;52.170;20.884;2023-01-27T02:27:52;100897.47;;;1.28;79.83
21276;BME280;36472;52.170;20.884;2023-01-27T02:30:22;100892.25;;;1.30;80.11
21276;BME280;36472;52.170;20.884;2023-01-27T02:32:51;100899.19;;;1.26;80.02
21276;BME280;36472;52.170;20.884;2023-01-27T02:35:28;100903.47;;;1.30;80.02
21276;BME280;36472;52.170;20.884;2023-01-27T02:37:59;100901.72;;;1.31;79.56
21276;BME280;36472;52.170;20.884;2023-01-27T02:40:30;100895.69;;;1.30;80.13
21276;BME280;36472;52.170;20.884;2023-01-27T02:43:04;100893.16;;;1.27;79.02
21276;BME280;36472;52.170;20.884;2023-01-27T02:45:33;100891.34;;;1.31;78.94
21276;BME280;36472;52.170;20.884;2023-01-27T02:48:02;100886.13;;;1.34;79.14
21276;BME280;36472;52.170;20.884;2023-01-27T02:50:31;100885.34;;;1.29;78.69
21276;BME280;36472;52.170;20.884;2023-01-27T02:53:02;100895.72;;;1.29;79.14
21276;BME280;36472;52.170;20.884;2023-01-27T02:55:31;100898.31;;;1.29;78.63
21276;BME280;36472;52.170;20.884;2023-01-27T02:58:02;100891.38;;;1.29;78.63
21276;BME280;36472;52.170;20.884;2023-01-27T03:00:51;100893.06;;;1.32;78.59
21276;BME280;36472;52.170;20.884;2023-01-27T03:03:20;100894.88;;;1.28;79.13
21276;BME280;36472;52.170;20.884;2023-01-27T03:05:50;100895.72;;;1.29;80.15
21276;BME280;36472;52.170;20.884;2023-01-27T03:08:19;100899.09;;;1.33;80.36
21276;BME280;36472;52.170;20.884;2023-01-27T03:10:50;100897.34;;;1.33;79.68
21276;BME280;36472;52.170;20.884;2023-01-27T03:13:24;100897.34;;;1.33;79.90
21276;BME280;36472;52.170;20.884;2023-01-27T03:15:58;100900.78;;;1.35;80.02
21276;BME280;36472;52.170;20.884;2023-01-27T03:18:44;100895.66;;;1.32;80.05
21276;BME280;36472;52.170;20.884;2023-01-27T03:21:17;100898.22;;;1.34;79.33
21276;BME280;36472;52.170;20.884;2023-01-27T03:23:46;100893.69;;;1.43;79.70
21276;BME280;36472;52.170;20.884;2023-01-27T03:26:21;100899.88;;;1.38;79.25
21276;BME280;36472;52.170;20.884;2023-01-27T03:28:56;100902.53;;;1.33;78.96
21276;BME280;36472;52.170;20.884;2023-01-27T03:31:42;100895.59;;;1.35;79.04
21276;BME280;36472;52.170;20.884;2023-01-27T03:34:11;100900.00;;;1.32;79.10
21276;BME280;36472;52.170;20.884;2023-01-27T03:37:03;100906.84;;;1.34;78.89
21276;BME280;36472;52.170;20.884;2023-01-27T03:39:50;100908.59;;;1.34;78.69
21276;BME280;36472;52.170;20.884;2023-01-27T03:42:37;100904.25;;;1.34;78.82
21276;BME280;36472;52.170;20.884;2023-01-27T03:45:24;100895.59;;;1.35;79.10
21276;BME280;36472;52.170;20.884;2023-01-27T03:48:11;100898.16;;;1.37;78.84
21276;BME280;36472;52.170;20.884;2023-01-27T03:50:40;100894.81;;;1.32;78.16
21276;BME280;36472;52.170;20.884;2023-01-27T03:53:10;100900.00;;;1.32;78.82
21276;BME280;36472;52.170;20.884;2023-01-27T03:55:39;100900.81;;;1.34;78.83
21276;BME280;36472;52.170;20.884;2023-01-27T03:58:18;100908.56;;;1.35;78.68
21276;BME280;36472;52.170;20.884;2023-01-27T04:00:52;100909.44;;;1.34;78.56
21276;BME280;36472;52.170;20.884;2023-01-27T04:03:26;100912.88;;;1.33;78.67
21276;BME280;36472;52.170;20.884;2023-01-27T04:06:15;100911.25;;;1.29;78.83
21276;BME280;36472;52.170;20.884;2023-01-27T04:09:04;100907.06;;;1.23;78.53
21276;BME280;36472;52.170;20.884;2023-01-27T04:11:33;100921.63;;;1.27;79.28
21276;BME280;36472;52.170;20.884;2023-01-27T04:14:22;100918.16;;;1.30;79.02
21276;BME280;36472;52.170;20.884;2023-01-27T04:16:55;100921.59;;;1.30;78.31
21276;BME280;36472;52.170;20.884;2023-01-27T04:19:24;100912.25;;;1.22;77.55
21276;BME280;36472;52.170;20.884;2023-01-27T04:21:54;100919.06;;;1.26;77.50
21276;BME280;36472;52.170;20.884;2023-01-27T04:24:23;100925.03;;;1.29;77.66
21276;BME280;36472;52.170;20.884;2023-01-27T04:26:55;100917.31;;;1.28;78.91
21276;BME280;36472;52.170;20.884;2023-01-27T04:29:27;100928.47;;;1.32;78.37
21276;BME280;36472;52.170;20.884;2023-01-27T04:31:58;100922.44;;;1.31;78.64
21276;BME280;36472;52.170;20.884;2023-01-27T04:34:27;100924.19;;;1.30;78.25
21276;BME280;36472;52.170;20.884;2023-01-27T04:36:56;100924.00;;;1.38;77.81
21276;BME280;36472;52.170;20.884;2023-01-27T04:39:26;100936.03;;;1.44;77.35
21276;BME280;36472;52.170;20.884;2023-01-27T04:41:55;100930.84;;;1.44;77.37
21276;BME280;36472;52.170;20.884;2023-01-27T04:44:25;100927.59;;;1.33;78.00
21276;BME280;36472;52.170;20.884;2023-01-27T04:46:54;100931.16;;;1.27;77.62
21276;BME280;36472;52.170;20.884;2023-01-27T04:49:24;100920.03;;;1.22;78.60
21276;BME280;36472;52.170;20.884;2023-01-27T04:51:54;100918.97;;;1.32;78.33
21276;BME280;36472;52.170;20.884;2023-01-27T04:54:23;100927.63;;;1.29;78.46
21276;BME280;36472;52.170;20.884;2023-01-27T04:56:57;100929.59;;;1.18;78.97
21276;BME280;36472;52.170;20.884;2023-01-27T04:59:27;100930.47;;;1.16;78.80
21276;BME280;36472;52.170;20.884;2023-01-27T05:01:56;100927.03;;;1.17;78.98
21276;BME280;36472;52.170;20.884;2023-01-27T05:04:27;100938.03;;;1.28;78.08
21276;BME280;36472;52.170;20.884;2023-01-27T05:06:56;100941.75;;;1.13;78.64
21276;BME280;36472;52.170;20.884;2023-01-27T05:09:25;100948.66;;;1.11;79.29
21276;BME280;36472;52.170;20.884;2023-01-27T05:11:54;100946.06;;;1.12;79.87
21276;BME280;36472;52.170;20.884;2023-01-27T05:14:23;100932.41;;;1.04;80.49
21276;BME280;36472;52.170;20.884;2023-01-27T05:16:52;100938.38;;;1.09;79.93
21276;BME280;36472;52.170;20.884;2023-01-27T05:19:21;100939.19;;;1.11;79.79
21276;BME280;36472;52.170;20.884;2023-01-27T05:21:51;100950.38;;;1.14;80.16
21276;BME280;36472;52.170;20.884;2023-01-27T05:24:21;100956.38;;;1.16;80.17
21276;BME280;36472;52.170;20.884;2023-01-27T05:26:50;100951.31;;;1.09;80.04
21276;BME280;36472;52.170;20.884;2023-01-27T05:29:20;100953.00;;;1.10;80.20
21276;BME280;36472;52.170;20.884;2023-01-27T05:31:49;100955.53;;;1.15;80.20
21276;BME280;36472;52.170;20.884;2023-01-27T05:34:18;100956.41;;;1.12;79.74
21276;BME280;36472;52.170;20.884;2023-01-27T05:36:47;100967.66;;;1.11;79.81
21276;BME280;36472;52.170;20.884;2023-01-27T05:39:17;100967.69;;;1.10;80.17
21276;BME280;36472;52.170;20.884;2023-01-27T05:41:46;100968.72;;;1.01;80.90
21276;BME280;36472;52.170;20.884;2023-01-27T05:44:15;100970.41;;;1.01;80.69
21276;BME280;36472;52.170;20.884;2023-01-27T05:46:44;100967.03;;;0.97;81.22
21276;BME280;36472;52.170;20.884;2023-01-27T05:49:14;100967.16;;;0.91;81.77
21276;BME280;36472;52.170;20.884;2023-01-27T05:51:42;100973.22;;;0.88;82.01
21276;BME280;36472;52.170;20.884;2023-01-27T05:54:11;100971.53;;;0.86;81.55
21276;BME280;36472;52.170;20.884;2023-01-27T05:56:42;100969.00;;;0.83;81.61
21276;BME280;36472;52.170;20.884;2023-01-27T05:59:11;100970.75;;;0.82;82.44
21276;BME280;36472;52.170;20.884;2023-01-27T06:01:40;100971.63;;;0.80;82.55
21276;BME280;36472;52.170;20.884;2023-01-27T06:04:09;100974.25;;;0.77;83.16
21276;BME280;36472;52.170;20.884;2023-01-27T06:06:38;100975.97;;;0.78;83.39
21276;BME280;36472;52.170;20.884;2023-01-27T06:09:09;100966.66;;;0.66;83.61
21276;BME280;36472;52.170;20.884;2023-01-27T06:11:38;100985.59;;;0.69;83.75
21276;BME280;36472;52.170;20.884;2023-01-27T06:14:08;100993.38;;;0.66;83.42
21276;BME280;36472;52.170;20.884;2023-01-27T06:16:37;100990.84;;;0.63;83.50
21276;BME280;36472;52.170;20.884;2023-01-27T06:19:06;100994.25;;;0.67;84.27
21276;BME280;36472;52.170;20.884;2023-01-27T06:21:35;100995.97;;;0.66;84.76
21276;BME280;36472;52.170;20.884;2023-01-27T06:24:05;101001.13;;;0.68;84.53
21276;BME280;36472;52.170;20.884;2023-01-27T06:26:34;101003.72;;;0.66;84.70
21276;BME280;36472;52.170;20.884;2023-01-27T06:29:03;101006.25;;;0.72;84.95
21276;BME280;36472;52.170;20.884;2023-01-27T06:31:34;101007.06;;;0.74;84.75
21276;BME280;36472;52.170;20.884;2023-01-27T06:34:03;101012.16;;;0.81;84.45
21276;BME280;36472;52.170;20.884;2023-01-27T06:36:32;101004.38;;;0.82;84.59
21276;BME280;36472;52.170;20.884;2023-01-27T06:39:01;101016.41;;;0.85;84.82
21276;BME280;36472;52.170;20.884;2023-01-27T06:41:30;101017.22;;;0.87;84.95
21276;BME280;36472;52.170;20.884;2023-01-27T06:43:59;101017.16;;;0.91;85.17
21276;BME280;36472;52.170;20.884;2023-01-27T06:46:28;101028.31;;;0.95;85.01
21276;BME280;36472;52.170;20.884;2023-01-27T06:48:58;101021.38;;;0.97;85.20
21276;BME280;36472;52.170;20.884;2023-01-27T06:51:27;101018.78;;;0.99;85.01
21276;BME280;36472;52.170;20.884;2023-01-27T06:53:56;101021.38;;;0.97;85.00
21276;BME280;36472;52.170;20.884;2023-01-27T06:56:25;101023.94;;;1.00;84.68
21276;BME280;36472;52.170;20.884;2023-01-27T06:58:54;101029.03;;;1.05;84.61
21276;BME280;36472;52.170;20.884;2023-01-27T07:01:23;101023.84;;;1.06;84.98
21276;BME280;36472;52.170;20.884;2023-01-27T07:03:52;101016.09;;;1.06;84.72
21276;BME280;36472;52.170;20.884;2023-01-27T07:06:22;101031.38;;;1.22;84.48
21276;BME280;36472;52.170;20.884;2023-01-27T07:08:51;101021.66;;;1.33;84.40
21276;BME280;36472;52.170;20.884;2023-01-27T07:11:22;101018.97;;;1.39;84.33
21276;BME280;36472;52.170;20.884;2023-01-27T07:13:52;101029.28;;;1.44;83.81
21276;BME280;36472;52.170;20.884;2023-01-27T07:16:21;101024.72;;;1.55;83.88
21276;BME280;36472;52.170;20.884;2023-01-27T07:18:50;101024.66;;;1.60;83.97
21276;BME280;36472;52.170;20.884;2023-01-27T07:21:18;101034.94;;;1.66;83.49
21276;BME280;36472;52.170;20.884;2023-01-27T07:23:49;101025.31;;;1.73;83.17
21276;BME280;36472;52.170;20.884;2023-01-27T07:26:18;101033.00;;;1.76;82.69
21276;BME280;36472;52.170;20.884;2023-01-27T07:28:52;101023.44;;;1.79;79.77
21276;BME280;36472;52.170;20.884;2023-01-27T07:31:21;101031.00;;;1.92;79.38
21276;BME280;36472;52.170;20.884;2023-01-27T07:33:51;101031.03;;;1.90;79.25
21276;BME280;36472;52.170;20.884;2023-01-27T07:36:20;101034.16;;;2.06;79.92
21276;BME280;36472;52.170;20.884;2023-01-27T07:38:51;101030.84;;;1.99;78.54
21276;BME280;36472;52.170;20.884;2023-01-27T07:41:20;101022.84;;;2.10;78.48
21276;BME280;36472;52.170;20.884;2023-01-27T07:43:50;101038.22;;;2.19;78.43
21276;BME280;36472;52.170;20.884;2023-01-27T07:46:19;101042.38;;;2.27;78.07
21276;BME280;36472;52.170;20.884;2023-01-27T07:48:48;101030.50;;;2.16;76.16
21276;BME280;36472;52.170;20.884;2023-01-27T07:51:17;101033.69;;;2.31;76.89
21276;BME280;36472;52.170;20.884;2023-01-27T07:53:46;101037.81;;;2.39;77.26
21276;BME280;36472;52.170;20.884;2023-01-27T07:56:16;101035.09;;;2.44;76.83
21276;BME280;36472;52.170;20.884;2023-01-27T07:58:45;101032.53;;;2.42;76.08
21276;BME280;36472;52.170;20.884;2023-01-27T08:01:14;101035.88;;;2.48;75.65
21276;BME280;36472;52.170;20.884;2023-01-27T08:03:43;101038.31;;;2.57;76.04
21276;BME280;36472;52.170;20.884;2023-01-27T08:06:13;101032.16;;;2.61;75.62
21276;BME280;36472;52.170;20.884;2023-01-27T08:08:41;101032.91;;;2.66;74.99
21276;BME280;36472;52.170;20.884;2023-01-27T08:11:13;101033.56;;;2.76;74.51
21276;BME280;36472;52.170;20.884;2023-01-27T08:13:43;101029.38;;;2.69;74.73
21276;BME280;36472;52.170;20.884;2023-01-27T08:16:14;101034.25;;;2.84;73.66
21276;BME280;36472;52.170;20.884;2023-01-27T08:18:43;101031.41;;;2.93;74.59
21276;BME280;36472;52.170;20.884;2023-01-27T08:21:12;101040.75;;;3.00;74.03
21276;BME280;36472;52.170;20.884;2023-01-27T08:23:41;101030.88;;;3.16;73.80
21276;BME280;36472;52.170;20.884;2023-01-27T08:26:10;101039.34;;;3.25;73.90
21276;BME280;36472;52.170;20.884;2023-01-27T08:28:39;101040.09;;;3.30;73.21
21276;BME280;36472;52.170;20.884;2023-01-27T08:31:13;101047.75;;;3.34;72.89
21276;BME280;36472;52.170;20.884;2023-01-27T08:33:44;101038.19;;;3.36;73.27
21276;BME280;36472;52.170;20.884;2023-01-27T08:36:16;101039.34;;;3.59;71.47
21276;BME280;36472;52.170;20.884;2023-01-27T08:38:45;101045.78;;;3.44;69.83
21276;BME280;36472;52.170;20.884;2023-01-27T08:41:19;101048.97;;;3.55;69.49
21276;BME280;36472;52.170;20.884;2023-01-27T08:43:49;101047.72;;;3.69;70.85
21276;BME280;36472;52.170;20.884;2023-01-27T08:46:20;101044.34;;;3.65;69.22
21276;BME280;36472;52.170;20.884;2023-01-27T08:48:49;101051.03;;;3.75;70.12
21276;BME280;36472;52.170;20.884;2023-01-27T08:51:18;101050.72;;;3.88;68.76
21276;BME280;36472;52.170;20.884;2023-01-27T08:53:47;101050.19;;;4.06;68.51
21276;BME280;36472;52.170;20.884;2023-01-27T08:56:16;101057.34;;;4.29;68.82
21276;BME280;36472;52.170;20.884;2023-01-27T08:58:45;101059.19;;;4.56;67.05
21276;BME280;36472;52.170;20.884;2023-01-27T09:01:15;101064.59;;;4.49;64.25
21276;BME280;36472;52.170;20.884;2023-01-27T09:03:46;101054.78;;;4.28;64.67
21276;BME280;36472;52.170;20.884;2023-01-27T09:06:16;101062.69;;;4.25;65.56
21276;BME280;36472;52.170;20.884;2023-01-27T09:08:45;101062.31;;;4.07;66.45
21276;BME280;36472;52.170;20.884;2023-01-27T09:11:42;101067.63;;;4.03;66.56
21276;BME280;36472;52.170;20.884;2023-01-27T09:14:12;101064.22;;;4.01;68.05
21276;BME280;36472;52.170;20.884;2023-01-27T09:16:41;101065.75;;;4.08;67.72
21276;BME280;36472;52.170;20.884;2023-01-27T09:19:11;101056.38;;;4.02;65.57
21276;BME280;36472;52.170;20.884;2023-01-27T09:21:41;101060.94;;;3.94;66.05
21276;BME280;36472;52.170;20.884;2023-01-27T09:24:09;101061.06;;;3.56;63.25
21276;BME280;36472;52.170;20.884;2023-01-27T09:26:40;101067.06;;;3.59;64.86
21276;BME280;36472;52.170;20.884;2023-01-27T09:29:09;101062.38;;;3.73;66.44
21276;BME280;36472;52.170;20.884;2023-01-27T09:31:38;101057.53;;;3.92;65.24
21276;BME280;36472;52.170;20.884;2023-01-27T09:34:07;101063.31;;;3.69;64.78
21276;BME280;36472;52.170;20.884;2023-01-27T09:36:43;101057.88;;;3.80;66.26
21276;BME280;36472;52.170;20.884;2023-01-27T09:39:18;101059.88;;;4.01;64.18
21276;BME280;36472;52.170;20.884;2023-01-27T09:42:12;101065.56;;;4.45;62.78
21276;BME280;36472;52.170;20.884;2023-01-27T09:45:19;101055.91;;;4.49;62.73
21276;BME280;36472;52.170;20.884;2023-01-27T09:48:22;101059.50;;;4.75;61.93
21276;BME280;36472;52.170;20.884;2023-01-27T09:51:01;101062.16;;;5.01;61.27
21276;BME280;36472;52.170;20.884;2023-01-27T09:53:56;101052.84;;;5.48;58.02
21276;BME280;36472;52.170;20.884;2023-01-27T09:56:43;101056.06;;;5.02;57.46
21276;BME280;36472;52.170;20.884;2023-01-27T09:59:29;101051.75;;;4.43;60.75
21276;BME280;36472;52.170;20.884;2023-01-27T10:02:19;101056.56;;;4.27;59.72
21276;BME280;36472;52.170;20.884;2023-01-27T10:05:18;101055.63;;;4.60;59.11
21276;BME280;36472;52.170;20.884;2023-01-27T10:08:35;101066.22;;;5.10;58.36
21276;BME280;36472;52.170;20.884;2023-01-27T10:11:19;101061.41;;;4.98;58.85
21276;BME280;36472;52.170;20.884;2023-01-27T10:14:09;101057.75;;;5.30;56.91
21276;BME280;36472;52.170;20.884;2023-01-27T10:17:18;101064.41;;;5.12;57.18
21276;BME280;36472;52.170;20.884;2023-01-27T10:20:09;101069.34;;;5.21;57.71
21276;BME280;36472;52.170;20.884;2023-01-27T10:22:54;101070.66;;;5.06;57.13
21276;BME280;36472;52.170;20.884;2023-01-27T10:25:43;101075.03;;;4.78;58.14
21276;BME280;36472;52.170;20.884;2023-01-27T10:28:22;101071.31;;;4.85;58.02
21276;BME280;36472;52.170;20.884;2023-01-27T10:30:59;101071.03;;;4.66;59.48
21276;BME280;36472;52.170;20.884;2023-01-27T10:33:47;101080.34;;;4.45;59.83
21276;BME280;36472;52.170;20.884;2023-01-27T10:36:27;101077.13;;;4.05;60.03
21276;BME280;36472;52.170;20.884;2023-01-27T10:39:14;101071.78;;;4.10;59.73
21276;BME280;36472;52.170;20.884;2023-01-27T10:42:00;101069.53;;;3.96;60.13
21276;BME280;36472;52.170;20.884;2023-01-27T10:44:56;101075.13;;;3.82;60.30
21276;BME280;36472;52.170;20.884;2023-01-27T10:47:46;101081.69;;;3.96;61.85
21276;BME280;36472;52.170;20.884;2023-01-27T10:50:26;101084.25;;;3.97;62.46
21276;BME280;36472;52.170;20.884;2023-01-27T10:53:04;101082.53;;;3.96;61.69
21276;BME280;36472;52.170;20.884;2023-01-27T10:55:41;101083.59;;;3.89;61.21
21276;BME280;36472;52.170;20.884;2023-01-27T10:58:19;101079.59;;;4.10;62.04
21276;BME280;36472;52.170;20.884;2023-01-27T11:00:54;101088.59;;;3.98;62.16
21276;BME280;36472;52.170;20.884;2023-01-27T11:03:50;101080.13;;;3.90;62.29
21276;BME280;36472;52.170;20.884;2023-01-27T11:06:24;101085.34;;;3.90;64.40
21276;BME280;36472;52.170;20.884;2023-01-27T11:09:15;101079.31;;;3.88;62.63
21276;BME280;36472;52.170;20.884;2023-01-27T11:11:51;101074.56;;;3.71;62.99
21276;BME280;36472;52.170;20.884;2023-01-27T11:14:26;101076.53;;;3.61;64.29
21276;BME280;36472;52.170;20.884;2023-01-27T11:17:11;101071.69;;;3.47;63.40
21276;BME280;36472;52.170;20.884;2023-01-27T11:19:53;101066.66;;;3.40;63.87
21276;BME280;36472;52.170;20.884;2023-01-27T11:22:32;101070.13;;;3.40;64.84
21276;BME280;36472;52.170;20.884;2023-01-27T11:25:15;101067.81;;;3.28;65.18
21276;BME280;36472;52.170;20.884;2023-01-27T11:28:02;101055.41;;;3.41;64.32
21276;BME280;36472;52.170;20.884;2023-01-27T11:30:39;101058.00;;;3.41;65.54
21276;BME280;36472;52.170;20.884;2023-01-27T11:33:22;101060.06;;;3.62;65.16
21276;BME280;36472;52.170;20.884;2023-01-27T11:35:55;101058.59;;;3.52;63.37
21276;BME280;36472;52.170;20.884;2023-01-27T11:38:25;101064.34;;;3.29;63.72
21276;BME280;36472;52.170;20.884;2023-01-27T11:40:53;101058.06;;;3.37;64.67
21276;BME280;36472;52.170;20.884;2023-01-27T11:43:25;101057.34;;;3.31;63.73
21276;BME280;36472;52.170;20.884;2023-01-27T11:46:03;101051.72;;;3.49;64.96
21276;BME280;36472;52.170;20.884;2023-01-27T11:48:40;101056.03;;;3.50;64.99
21276;BME280;36472;52.170;20.884;2023-01-27T11:51:17;101053.72;;;3.38;65.76
21276;BME280;36472;52.170;20.884;2023-01-27T11:54:05;101051.03;;;3.41;65.51
21276;BME280;36472;52.170;20.884;2023-01-27T11:56:40;101048.25;;;3.49;66.21
21276;BME280;36472;52.170;20.884;2023-01-27T11:59:17;101056.56;;;2.91;66.22
21276;BME280;36472;52.170;20.884;2023-01-27T12:01:52;101052.09;;;2.98;67.26
21276;BME280;36472;52.170;20.884;2023-01-27T12:04:47;101055.53;;;2.98;67.88
21276;BME280;36472;52.170;20.884;2023-01-27T12:07:26;101059.13;;;2.93;67.80
21276;BME280;36472;52.170;20.884;2023-01-27T12:10:02;101056.22;;;3.07;68.88
21276;BME280;36472;52.170;20.884;2023-01-27T12:12:48;101055.66;;;2.94;67.91
21276;BME280;36472;52.170;20.884;2023-01-27T12:15:18;101045.88;;;3.04;67.63
21276;BME280;36472;52.170;20.884;2023-01-27T12:17:51;101050.00;;;3.12;67.13
21276;BME280;36472;52.170;20.884;2023-01-27T12:20:32;101065.50;;;3.17;68.38
21276;BME280;36472;52.170;20.884;2023-01-27T12:23:13;101065.22;;;3.28;67.61
21276;BME280;36472;52.170;20.884;2023-01-27T12:25:51;101055.69;;;2.92;68.11
21276;BME280;36472;52.170;20.884;2023-01-27T12:28:27;101051.97;;;3.04;68.82
21276;BME280;36472;52.170;20.884;2023-01-27T12:31:05;101054.59;;;3.03;68.10
21276;BME280;36472;52.170;20.884;2023-01-27T12:33:40;101052.66;;;2.73;68.83
21276;BME280;36472;52.170;20.884;2023-01-27T12:36:16;101056.84;;;2.79;69.17
21276;BME280;36472;52.170;20.884;2023-01-27T12:38:52;101062.03;;;2.79;70.30
21276;BME280;36472;52.170;20.884;2023-01-27T12:41:25;101058.34;;;2.89;70.48
21276;BME280;36472;52.170;20.884;2023-01-27T12:43:57;101048.00;;;2.88;71.45
21276;BME280;36472;52.170;20.884;2023-01-27T12:46:29;101063.25;;;3.02;71.16
21276;BME280;36472;52.170;20.884;2023-01-27T12:49:01;101062.53;;;3.32;71.40
21276;BME280;36472;52.170;20.884;2023-01-27T12:51:41;101066.59;;;3.07;70.48
21276;BME280;36472;52.170;20.884;2023-01-27T12:54:20;101069.59;;;2.90;71.21
21276;BME280;36472;52.170;20.884;2023-01-27T12:56:52;101070.88;;;2.70;71.17
21276;BME280;36472;52.170;20.884;2023-01-27T12:59:24;101074.13;;;2.80;70.82
21276;BME280;36472;52.170;20.884;2023-01-27T13:02:00;101069.00;;;2.78;71.51
21276;BME280;36472;52.170;20.884;2023-01-27T13:04:30;101078.13;;;2.95;69.84
21276;BME280;36472;52.170;20.884;2023-01-27T13:07:07;101067.94;;;2.87;70.34
21276;BME280;36472;52.170;20.884;2023-01-27T13:09:48;101066.41;;;2.77;70.21
21276;BME280;36472;52.170;20.884;2023-01-27T13:12:24;101058.63;;;2.77;71.50
21276;BME280;36472;52.170;20.884;2023-01-27T13:14:56;101050.63;;;2.86;73.12
21276;BME280;36472;52.170;20.884;2023-01-27T13:17:36;101054.81;;;2.92;73.68
21276;BME280;36472;52.170;20.884;2023-01-27T13:20:18;101055.44;;;3.03;73.38
21276;BME280;36472;52.170;20.884;2023-01-27T13:22:56;101045.59;;;3.16;73.41
21276;BME280;36472;52.170;20.884;2023-01-27T13:25:35;101059.84;;;3.35;72.88
21276;BME280;36472;52.170;20.884;2023-01-27T13:28:07;101055.16;;;3.14;73.25